Time;durP1;ratioP1;P1;durP2;ratioP2;P2;SDS_P1;SDS_P2;PMS_P1;PMS_P2;Temp;Humidity;BMP_temperature;BMP_pressure;BME280_temperature;BME280_humidity;BME280_pressure;Samples;Min_cycle;Max_cycle;Signal;HPM_P1;HPM_P2
2023/05/02 00:02:22;;;;;;;38.53;8.47;;;20.60;56.40;;;;;;5105576;27;20567;-91
2023/05/02 00:04:49;;;;;;;51.23;9.80;;;20.60;56.50;;;;;;5126167;27;20280;-91
2023/05/02 00:07:16;;;;;;;23.87;7.57;;;20.60;56.50;;;;;;5112875;27;20240;-91
2023/05/02 00:09:43;;;;;;;26.10;7.80;;;20.60;56.40;;;;;;5129437;27;20194;-91
2023/05/02 00:12:11;;;;;;;26.60;7.87;;;20.60;56.50;;;;;;5130097;27;20712;-90
2023/05/02 00:14:38;;;;;;;25.67;7.23;;;20.60;56.50;;;;;;5130136;27;20640;-91
2023/05/02 00:17:05;;;;;;;35.27;8.70;;;20.50;56.50;;;;;;5123048;27;20292;-91
2023/05/02 00:19:32;;;;;;;30.33;8.00;;;20.50;56.50;;;;;;5129957;27;20196;-90
2023/05/02 00:21:59;;;;;;;26.47;7.60;;;20.50;56.50;;;;;;5124482;27;20313;-91
2023/05/02 00:24:26;;;;;;;21.53;7.00;;;20.50;56.50;;;;;;5089023;28;20317;-91
2023/05/02 00:26:53;;;;;;;27.03;7.53;;;20.50;56.50;;;;;;5088129;28;20207;-91
2023/05/02 00:29:22;;;;;;;34.23;8.73;;;20.50;56.50;;;;;;5099134;27;20314;-91
2023/05/02 00:31:49;;;;;;;32.03;8.77;;;20.50;56.50;;;;;;5129212;27;20317;-91
2023/05/02 00:34:16;;;;;;;23.30;7.70;;;20.50;56.50;;;;;;5123456;27;20208;-91
2023/05/02 00:36:46;;;;;;;31.43;8.17;;;20.50;56.50;;;;;;5129097;27;20284;-91
2023/05/02 00:39:13;;;;;;;40.27;8.93;;;20.40;56.50;;;;;;5128944;27;20274;-91
2023/05/02 00:41:40;;;;;;;26.57;8.23;;;20.40;56.50;;;;;;5129287;27;20241;-91
2023/05/02 00:44:07;;;;;;;26.20;8.40;;;20.40;56.50;;;;;;5113425;27;20317;-91
2023/05/02 00:46:35;;;;;;;34.93;8.97;;;20.40;56.50;;;;;;5108116;28;20395;-91
2023/05/02 00:49:02;;;;;;;38.83;8.73;;;20.40;56.50;;;;;;5107318;28;20297;-91
2023/05/02 00:51:29;;;;;;;28.27;8.40;;;20.40;56.40;;;;;;5108598;28;20221;-91
2023/05/02 00:53:57;;;;;;;35.30;8.80;;;20.40;56.50;;;;;;5105738;28;20201;-91
2023/05/02 00:56:24;;;;;;;28.63;8.47;;;20.40;56.50;;;;;;5110085;28;20208;-91
2023/05/02 00:58:51;;;;;;;31.53;8.83;;;20.40;56.50;;;;;;5108536;28;20234;-91
2023/05/02 01:01:33;;;;;;;28.10;7.90;;;20.40;56.50;;;;;;5108414;28;20288;-91
2023/05/02 01:04:14;;;;;;;59.77;11.17;;;20.30;56.40;;;;;;5106794;28;20201;-91
2023/05/02 01:06:53;;;;;;;44.73;9.27;;;20.30;56.40;;;;;;5089220;28;20235;-91
2023/05/02 01:09:34;;;;;;;38.63;9.00;;;20.30;56.40;;;;;;5108622;28;20635;-91
2023/05/02 01:12:05;;;;;;;30.67;8.10;;;20.30;56.40;;;;;;5128803;28;20274;-91
2023/05/02 01:14:41;;;;;;;32.00;9.37;;;20.30;56.40;;;;;;5124742;28;20210;-92
2023/05/02 01:17:12;;;;;;;29.10;8.50;;;20.30;56.40;;;;;;5108462;28;20364;-91
2023/05/02 01:19:43;;;;;;;27.60;8.67;;;20.30;56.40;;;;;;5108412;28;20198;-91
2023/05/02 01:22:13;;;;;;;30.87;8.30;;;20.30;56.40;;;;;;5108285;28;20200;-90
2023/05/02 01:24:48;;;;;;;28.67;8.57;;;20.30;56.40;;;;;;5109204;28;20198;-91
2023/05/02 01:27:28;;;;;;;29.10;8.10;;;20.30;56.40;;;;;;5107938;28;20213;-91
2023/05/02 01:29:59;;;;;;;28.47;8.67;;;20.30;56.50;;;;;;5122230;28;20214;-91
2023/05/02 01:32:29;;;;;;;28.83;8.40;;;20.30;56.40;;;;;;5109325;28;20234;-91
2023/05/02 01:34:58;;;;;;;26.20;8.43;;;20.30;56.50;;;;;;5107555;28;20212;-91
2023/05/02 01:37:27;;;;;;;32.20;8.60;;;20.30;56.50;;;;;;5105834;28;20198;-92
2023/05/02 01:39:56;;;;;;;24.93;8.43;;;20.20;56.40;;;;;;5127176;28;20292;-91
2023/05/02 01:42:25;;;;;;;45.13;10.17;;;20.20;56.40;;;;;;5115635;28;20315;-92
2023/05/02 01:44:54;;;;;;;43.33;10.23;;;20.20;56.40;;;;;;5088834;28;20243;-91
2023/05/02 01:47:25;;;;;;;31.93;9.10;;;20.20;56.40;;;;;;5128379;28;20293;-91
2023/05/02 01:49:53;;;;;;;45.57;10.23;;;20.20;56.40;;;;;;5122874;28;20289;-91
2023/05/02 01:52:22;;;;;;;31.93;9.50;;;20.20;56.40;;;;;;5108105;28;20313;-90
2023/05/02 01:54:52;;;;;;;27.90;8.93;;;20.20;56.40;;;;;;5107900;28;20535;-91
2023/05/02 01:57:19;;;;;;;28.10;8.77;;;20.20;56.40;;;;;;5113483;28;20340;-91
2023/05/02 01:59:49;;;;;;;20.23;9.00;;;20.20;57.00;;;;;;5130445;27;20854;-90
2023/05/02 02:02:17;;;;;;;28.30;8.60;;;20.20;56.40;;;;;;5132366;27;20213;-91
2023/05/02 02:04:47;;;;;;;29.43;9.17;;;20.20;56.50;;;;;;5114283;27;20201;-90
2023/05/02 02:07:14;;;;;;;25.10;8.63;;;20.10;56.40;;;;;;5112400;27;20673;-92
2023/05/02 02:09:41;;;;;;;29.40;9.33;;;20.10;56.30;;;;;;5111111;28;20354;-90
2023/05/02 02:12:13;;;;;;;28.33;9.20;;;20.10;56.30;;;;;;5111796;28;20312;-91
2023/05/02 02:14:43;;;;;;;29.07;8.90;;;20.10;56.30;;;;;;5110861;28;20569;-91
2023/05/02 02:17:15;;;;;;;23.43;8.33;;;20.10;56.40;;;;;;5110285;28;20312;-91
2023/05/02 02:19:42;;;;;;;34.23;9.83;;;20.10;56.30;;;;;;5111096;28;20198;-91
2023/05/02 02:22:14;;;;;;;30.67;8.90;;;20.10;56.40;;;;;;5111478;28;20729;-91
2023/05/02 02:24:41;;;;;;;28.67;9.73;;;20.10;56.30;;;;;;5109375;28;20198;-91
2023/05/02 02:27:08;;;;;;;34.47;9.43;;;20.10;56.40;;;;;;5111269;27;20208;-90
2023/05/02 02:29:36;;;;;;;35.37;9.90;;;20.10;56.30;;;;;;5110910;28;20736;-91
2023/05/02 02:32:02;;;;;;;25.50;8.57;;;20.00;56.30;;;;;;5115585;27;20575;-91
2023/05/02 02:34:29;;;;;;;31.10;9.73;;;20.10;56.40;;;;;;5131683;27;20292;-91
2023/05/02 02:37:04;;;;;;;27.20;8.90;;;20.00;56.30;;;;;;5120859;27;20212;-91
2023/05/02 02:39:51;;;;;;;31.00;10.07;;;20.00;56.30;;;;;;5111110;28;20212;-91
2023/05/02 02:42:25;;;;;;;36.73;9.87;;;20.00;56.20;;;;;;5102070;28;20190;-90
2023/05/02 02:45:01;;;;;;;31.13;9.17;;;20.00;56.30;;;;;;5110727;28;20234;-91
2023/05/02 02:47:36;;;;;;;24.53;8.97;;;20.00;56.30;;;;;;5109979;28;20238;-91
2023/05/02 02:50:15;;;;;;;27.30;8.67;;;20.00;56.30;;;;;;5109569;28;20728;-90
2023/05/02 02:52:52;;;;;;;30.10;8.77;;;20.00;56.30;;;;;;5110464;28;20225;-91
2023/05/02 02:55:31;;;;;;;32.83;8.93;;;19.90;56.20;;;;;;5110648;28;20198;-90
2023/05/02 02:58:02;;;;;;;29.07;8.67;;;19.90;56.20;;;;;;5111622;27;20228;-90
2023/05/02 03:00:30;;;;;;;27.70;8.83;;;19.90;56.20;;;;;;5104714;28;20198;-91
2023/05/02 03:02:57;;;;;;;27.20;8.07;;;19.90;56.20;;;;;;5089815;28;20206;-90
2023/05/02 03:05:25;;;;;;;30.53;8.23;;;19.90;56.20;;;;;;5089973;28;20202;-91
2023/05/02 03:07:52;;;;;;;26.60;8.17;;;19.90;56.20;;;;;;5097558;28;20337;-91
2023/05/02 03:10:19;;;;;;;33.87;8.87;;;19.90;56.20;;;;;;5109639;28;20198;-90
2023/05/02 03:12:47;;;;;;;40.00;9.60;;;19.90;56.20;;;;;;5107777;27;20274;-90
2023/05/02 03:15:39;;;;;;;26.03;8.70;;;19.80;56.10;;;;;;5110829;28;20314;-90
2023/05/02 03:18:06;;;;;;;41.57;8.70;;;19.80;56.10;;;;;;5110317;28;20634;-91
2023/05/02 03:20:33;;;;;;;27.07;7.83;;;19.80;56.10;;;;;;5110334;28;20639;-91
2023/05/02 03:23:00;;;;;;;32.10;8.93;;;19.80;56.10;;;;;;5109619;28;20195;-91
2023/05/02 03:25:27;;;;;;;31.00;8.23;;;19.80;56.10;;;;;;5104707;28;20285;-90
2023/05/02 03:27:57;;;;;;;23.43;7.27;;;19.70;56.10;;;;;;5130591;27;20378;-90
2023/05/02 03:30:24;;;;;;;25.87;7.50;;;19.70;56.10;;;;;;5130385;27;20312;-91
2023/05/02 03:32:51;;;;;;;28.10;7.23;;;19.70;56.10;;;;;;5104394;27;20246;-91
2023/05/02 03:35:18;;;;;;;34.70;8.13;;;19.70;56.10;;;;;;5089409;28;20314;-90
2023/05/02 03:37:45;;;;;;;27.33;7.60;;;19.70;56.10;;;;;;5089458;28;20198;-90
2023/05/02 03:40:15;;;;;;;39.63;8.67;;;19.70;56.10;;;;;;5094935;28;20706;-91
2023/05/02 03:42:42;;;;;;;25.67;6.90;;;19.70;56.10;;;;;;5109023;28;20205;-91
2023/05/02 03:45:12;;;;;;;26.67;7.73;;;19.70;56.10;;;;;;5110095;28;20308;-91
2023/05/02 03:47:39;;;;;;;26.73;7.27;;;19.60;56.00;;;;;;5109662;28;20636;-90
2023/05/02 03:50:07;;;;;;;43.53;8.27;;;19.60;56.00;;;;;;5108866;27;20277;-90
2023/05/02 03:52:35;;;;;;;25.50;7.67;;;19.60;56.00;;;;;;5122798;27;20229;-91
2023/05/02 03:55:02;;;;;;;28.17;7.17;;;19.60;56.00;;;;;;5130488;27;20217;-90
2023/05/02 03:57:30;;;;;;;26.37;7.10;;;19.60;56.00;;;;;;5121247;27;20206;-91
2023/05/02 03:59:57;;;;;;;40.63;7.67;;;19.60;56.10;;;;;;5108690;28;20468;-91
2023/05/02 04:02:25;;;;;;;24.00;6.43;;;19.60;56.10;;;;;;5109398;28;20277;-90
2023/05/02 04:04:52;;;;;;;25.43;6.83;;;19.50;56.00;;;;;;5109576;28;20208;-91
2023/05/02 04:07:20;;;;;;;25.20;6.57;;;19.50;56.00;;;;;;5109206;28;21017;-91
2023/05/02 04:09:46;;;;;;;23.37;5.87;;;19.50;56.00;;;;;;5109339;28;20236;-90
2023/05/02 04:12:15;;;;;;;30.93;6.93;;;19.50;56.00;;;;;;5107570;28;20684;-91
2023/05/02 04:14:42;;;;;;;27.40;7.47;;;19.50;56.00;;;;;;5116990;27;20292;-91
2023/05/02 04:17:11;;;;;;;25.07;6.37;;;19.50;56.00;;;;;;5129350;27;20288;-91
2023/05/02 04:19:41;;;;;;;26.17;6.07;;;19.50;56.00;;;;;;5121805;27;20198;-91
2023/05/02 04:22:08;;;;;;;31.97;7.37;;;19.50;56.00;;;;;;5122210;27;20220;-91
2023/05/02 04:24:35;;;;;;;28.07;6.33;;;19.50;56.10;;;;;;5088785;28;20213;-90
2023/05/02 04:27:02;;;;;;;34.40;7.23;;;19.40;56.00;;;;;;5087149;28;20222;-91
2023/05/02 04:29:29;;;;;;;43.33;7.23;;;19.40;56.00;;;;;;5095916;28;20230;-90
2023/05/02 04:31:57;;;;;;;28.70;6.73;;;19.40;56.00;;;;;;5107063;27;20220;-92
2023/05/02 04:34:24;;;;;;;27.37;6.63;;;19.40;56.00;;;;;;5129832;27;20676;-92
2023/05/02 04:36:52;;;;;;;37.80;7.20;;;19.40;56.00;;;;;;5117960;27;20704;-91
2023/05/02 04:39:19;;;;;;;37.43;7.00;;;19.40;56.10;;;;;;5108850;28;20202;-92
2023/05/02 04:41:46;;;;;;;27.17;6.57;;;19.30;56.00;;;;;;5109171;28;20206;-91
2023/05/02 04:44:13;;;;;;;35.13;7.10;;;19.30;56.00;;;;;;5109043;28;20257;-92
2023/05/02 04:46:40;;;;;;;33.37;6.83;;;19.30;56.00;;;;;;5109352;28;20233;-92
2023/05/02 04:49:09;;;;;;;59.93;8.90;;;19.30;56.00;;;;;;5116380;27;20206;-90
2023/05/02 04:51:36;;;;;;;35.33;7.20;;;19.30;56.00;;;;;;5112116;27;20629;-90
2023/05/02 04:54:04;;;;;;;24.90;6.10;;;19.30;56.00;;;;;;5101438;28;20210;-90
2023/05/02 04:56:31;;;;;;;26.27;6.17;;;19.30;56.00;;;;;;5108038;28;20559;-90
2023/05/02 04:58:58;;;;;;;30.70;6.80;;;19.30;56.10;;;;;;5108586;28;20201;-91
2023/05/02 05:01:26;;;;;;;72.40;10.20;;;19.30;56.10;;;;;;5107129;28;20278;-90
2023/05/02 05:03:54;;;;;;;29.07;6.37;;;19.30;56.10;;;;;;5097034;28;20228;-90
2023/05/02 05:06:21;;;;;;;31.50;6.70;;;19.20;56.00;;;;;;5110336;28;20209;-90
2023/05/02 05:08:48;;;;;;;29.17;6.87;;;19.20;56.00;;;;;;5108510;28;20206;-90
2023/05/02 05:11:17;;;;;;;20.93;5.70;;;19.20;56.00;;;;;;5107943;28;20282;-90
2023/05/02 05:13:45;;;;;;;31.53;6.63;;;19.20;56.00;;;;;;5108852;28;20278;-90
2023/05/02 05:16:12;;;;;;;32.07;7.20;;;19.20;56.10;;;;;;5103403;28;20205;-90
2023/05/02 05:18:40;;;;;;;32.90;7.23;;;19.20;56.10;;;;;;5097089;28;20749;-90
2023/05/02 05:21:07;;;;;;;33.50;7.50;;;19.20;56.10;;;;;;5109820;28;20212;-88
2023/05/02 05:23:34;;;;;;;51.57;8.83;;;19.20;56.10;;;;;;5101855;28;20203;-89
2023/05/02 05:26:09;;;;;;;35.80;7.57;;;19.20;56.10;;;;;;5114943;28;20624;-89
2023/05/02 05:28:38;;;;;;;41.20;7.93;;;19.20;56.10;;;;;;5121130;28;20201;-90
2023/05/02 05:31:07;;;;;;;41.83;7.77;;;19.20;56.10;;;;;;5094113;28;20282;-92
2023/05/02 05:33:34;;;;;;;35.80;7.47;;;19.20;56.10;;;;;;5104601;28;20322;-89
2023/05/02 05:36:05;;;;;;;55.00;8.90;;;19.20;56.10;;;;;;5112118;27;20198;-90
2023/05/02 05:38:34;;;;;;;40.57;8.37;;;19.10;56.00;;;;;;5114436;27;20202;-89
2023/05/02 05:41:01;;;;;;;31.23;6.50;;;19.10;56.00;;;;;;5112296;28;20238;-89
2023/05/02 05:43:29;;;;;;;45.13;7.70;;;19.10;56.00;;;;;;5109120;28;20841;-88
2023/05/02 05:45:57;;;;;;;46.83;8.20;;;19.10;56.00;;;;;;5113738;27;20197;-88
2023/05/02 05:48:24;;;;;;;39.07;7.70;;;19.00;56.00;;;;;;5114112;27;20272;-88
2023/05/02 05:50:51;;;;;;;36.73;7.67;;;19.10;56.10;;;;;;5110292;27;20195;-89
2023/05/02 05:53:19;;;;;;;27.50;6.80;;;19.00;56.50;;;;;;5104918;28;20214;-89
2023/05/02 05:55:46;;;;;;;32.50;6.87;;;19.00;56.00;;;;;;5097298;28;20771;-89
2023/05/02 05:58:13;;;;;;;38.10;7.73;;;19.00;56.00;;;;;;5091121;28;20226;-88
2023/05/02 06:00:43;;;;;;;34.20;7.00;;;19.00;56.00;;;;;;5091738;28;20381;-88
2023/05/02 06:03:13;;;;;;;30.70;6.77;;;19.00;56.10;;;;;;5091599;28;20201;-88
2023/05/02 06:05:40;;;;;;;33.63;7.27;;;19.00;56.10;;;;;;5103188;28;20258;-88
2023/05/02 06:08:07;;;;;;;31.17;7.60;;;19.00;56.10;;;;;;5111906;27;20642;-88
2023/05/02 06:10:34;;;;;;;40.00;8.03;;;19.00;56.10;;;;;;5110822;27;20255;-88
2023/05/02 06:13:01;;;;;;;36.07;7.67;;;19.00;56.20;;;;;;5126473;27;20300;-89
2023/05/02 06:15:28;;;;;;;35.53;8.03;;;19.00;56.20;;;;;;5131954;27;20289;-89
2023/05/02 06:17:55;;;;;;;22.47;6.90;;;19.00;56.30;;;;;;5132356;27;20205;-88
2023/05/02 06:20:23;;;;;;;30.13;7.30;;;19.00;56.30;;;;;;5120895;27;20313;-89
2023/05/02 06:22:50;;;;;;;37.70;7.70;;;19.00;56.30;;;;;;5111246;28;20615;-89
2023/05/02 06:25:17;;;;;;;38.43;7.43;;;19.00;56.30;;;;;;5110196;28;20228;-89
2023/05/02 06:27:44;;;;;;;30.83;7.17;;;19.00;56.30;;;;;;5111331;28;20214;-89
2023/05/02 06:30:12;;;;;;;34.67;7.50;;;19.00;56.40;;;;;;5111052;27;20296;-88
2023/05/02 06:32:41;;;;;;;32.57;7.27;;;19.00;56.40;;;;;;5110304;28;20220;-89
2023/05/02 06:35:08;;;;;;;45.90;7.93;;;19.00;56.40;;;;;;5108613;28;20254;-88
2023/05/02 06:37:37;;;;;;;29.57;6.67;;;19.00;56.40;;;;;;5110147;28;20750;-89
2023/05/02 06:40:04;;;;;;;48.23;8.40;;;19.00;56.40;;;;;;5110569;28;20297;-89
2023/05/02 06:42:31;;;;;;;29.60;7.23;;;19.00;56.40;;;;;;5110916;28;20285;-89
2023/05/02 06:44:58;;;;;;;47.13;8.33;;;19.00;56.50;;;;;;5110311;28;20644;-88
2023/05/02 06:47:25;;;;;;;24.43;6.33;;;19.00;56.50;;;;;;5108465;28;20287;-87
2023/05/02 06:49:52;;;;;;;34.70;6.80;;;19.00;56.50;;;;;;5109361;28;20229;-88
2023/05/02 06:52:20;;;;;;;35.37;6.60;;;19.00;56.50;;;;;;5113047;28;20220;-88
2023/05/02 06:54:52;;;;;;;41.63;7.00;;;19.10;56.10;;;;;;5116672;28;20270;-88
2023/05/02 06:57:19;;;;;;;43.47;7.23;;;19.00;55.60;;;;;;5115101;28;20244;-88
2023/05/02 06:59:46;;;;;;;34.70;6.83;;;19.00;55.50;;;;;;5120783;27;20228;-89
2023/05/02 07:02:13;;;;;;;43.23;7.30;;;19.00;55.30;;;;;;5134320;27;20185;-88
2023/05/02 07:04:40;;;;;;;46.30;7.90;;;19.00;55.10;;;;;;5128867;27;20194;-88
2023/05/02 07:07:07;;;;;;;32.50;6.83;;;19.00;54.90;;;;;;5125875;27;20205;-88
2023/05/02 07:09:34;;;;;;;47.17;7.60;;;18.90;54.70;;;;;;5120972;27;20194;-87
2023/05/02 07:12:02;;;;;;;38.47;6.70;;;18.90;54.90;;;;;;5110185;27;20204;-83
2023/05/02 07:14:32;;;;;;;32.47;6.70;;;18.80;54.80;;;;;;5110799;28;20281;-83
2023/05/02 07:16:59;;;;;;;32.67;6.40;;;18.80;55.00;;;;;;5110743;28;20233;-82
2023/05/02 07:19:26;;;;;;;19.57;5.90;;;18.70;55.10;;;;;;5105468;28;20729;-83
2023/05/02 07:21:53;;;;;;;31.00;6.33;;;18.70;55.20;;;;;;5125737;27;20235;-81
2023/05/02 07:24:20;;;;;;;24.37;5.80;;;18.60;55.20;;;;;;5110267;28;20604;-85
2023/05/02 07:26:47;;;;;;;36.27;7.27;;;18.60;55.20;;;;;;5109776;28;20206;-90
2023/05/02 07:29:15;;;;;;;34.30;6.67;;;18.60;55.10;;;;;;5110382;28;20292;-90
2023/05/02 07:31:42;;;;;;;30.03;5.83;;;18.60;54.90;;;;;;5114517;27;20210;-92
2023/05/02 07:34:09;;;;;;;43.13;7.37;;;18.50;54.80;;;;;;5109078;28;20235;-92
2023/05/02 07:36:36;;;;;;;47.57;7.73;;;18.50;54.90;;;;;;5109019;27;20259;-92
2023/05/02 07:39:03;;;;;;;29.70;5.97;;;18.40;54.80;;;;;;5110635;28;20293;-91
2023/05/02 07:41:30;;;;;;;28.73;5.93;;;18.40;54.70;;;;;;5109068;28;20202;-93
2023/05/02 07:43:58;;;;;;;50.80;7.87;;;18.40;54.50;;;;;;5109960;27;20241;-90
2023/05/02 07:46:26;;;;;;;30.77;6.57;;;18.30;54.40;;;;;;5130508;27;20196;-91
2023/05/02 07:49:02;;;;;;;31.70;6.33;;;18.30;54.80;;;;;;5130750;27;20221;-95
2023/05/02 07:51:31;;;;;;;35.07;6.47;;;18.30;54.30;;;;;;5126131;27;20205;-91
2023/05/02 07:54:05;;;;;;;32.20;6.73;;;18.30;54.30;;;;;;5110023;28;20693;-94
2023/05/02 07:56:33;;;;;;;63.60;9.57;;;18.20;54.30;;;;;;5107869;27;20212;-87
2023/05/02 07:59:00;;;;;;;65.60;9.97;;;18.20;54.30;;;;;;5108072;28;20286;-90
2023/05/02 08:01:29;;;;;;;50.63;8.30;;;18.10;54.30;;;;;;5125653;27;20194;-93
2023/05/02 08:03:56;;;;;;;60.63;8.87;;;18.10;54.40;;;;;;5116003;27;20205;-88
2023/05/02 08:06:23;;;;;;;36.50;7.27;;;18.10;54.60;;;;;;5130139;27;20273;-87
2023/05/02 08:08:50;;;;;;;39.23;7.33;;;18.00;54.60;;;;;;5129895;27;20633;-91
2023/05/02 08:11:18;;;;;;;50.93;8.27;;;18.00;54.60;;;;;;5118455;27;20973;-92
2023/05/02 08:13:45;;;;;;;39.90;7.13;;;18.00;54.70;;;;;;5120574;28;20229;-93
2023/05/02 08:16:12;;;;;;;49.07;8.27;;;18.00;54.80;;;;;;5110340;28;20205;-89
2023/05/02 08:18:40;;;;;;;36.83;6.93;;;18.00;54.80;;;;;;5113099;27;20231;-92
2023/05/02 08:21:08;;;;;;;44.20;7.67;;;18.00;54.90;;;;;;5129908;27;20190;-91
2023/05/02 08:23:36;;;;;;;36.17;7.30;;;18.00;54.80;;;;;;5112137;27;20922;-92
2023/05/02 08:26:03;;;;;;;45.90;8.13;;;18.00;55.50;;;;;;5108717;28;20263;-91
2023/05/02 08:28:30;;;;;;;41.97;7.07;;;18.00;54.80;;;;;;5116982;27;20263;-90
2023/05/02 08:30:57;;;;;;;35.27;7.30;;;17.90;54.70;;;;;;5118593;27;20234;-92
2023/05/02 08:33:24;;;;;;;41.53;7.47;;;17.90;54.70;;;;;;5108046;28;20229;-89
2023/05/02 08:35:53;;;;;;;53.13;8.17;;;17.90;54.70;;;;;;5111800;28;20281;-92
2023/05/02 08:38:19;;;;;;;44.17;7.43;;;18.00;54.80;;;;;;5109708;28;20205;-91
2023/05/02 08:40:47;;;;;;;50.50;7.83;;;18.00;54.50;;;;;;5106997;27;20290;-95
2023/05/02 08:43:17;;;;;;;34.37;6.57;;;18.00;54.50;;;;;;5110783;28;20202;-96
2023/05/02 08:45:45;;;;;;;28.87;6.23;;;18.00;54.70;;;;;;5110886;28;20197;-93
2023/05/02 08:48:15;;;;;;;33.00;6.80;;;18.00;54.90;;;;;;5109715;28;20225;-93
2023/05/02 08:50:46;;;;;;;39.07;7.23;;;18.00;55.00;;;;;;5108555;28;20247;-92
2023/05/02 08:53:15;;;;;;;32.67;6.23;;;18.00;55.10;;;;;;5117367;27;20219;-92
2023/05/02 08:55:43;;;;;;;50.83;7.83;;;18.00;55.20;;;;;;5140791;27;20203;-91
2023/05/02 08:58:11;;;;;;;24.00;6.13;;;18.00;55.20;;;;;;5152711;27;20185;-95
2023/05/02 09:00:40;;;;;;;25.63;5.90;;;18.10;55.30;;;;;;5131329;27;20237;-92
2023/05/02 09:03:15;;;;;;;21.07;5.37;;;18.10;55.40;;;;;;5120080;28;20205;-93
2023/05/02 09:06:05;;;;;;;19.43;5.13;;;18.00;55.40;;;;;;5108080;28;20204;-91
2023/05/02 09:08:43;;;;;;;15.33;4.93;;;18.20;55.60;;;;;;5111586;28;20200;-96
2023/05/02 09:11:11;;;;;;;20.33;5.30;;;18.20;55.60;;;;;;5117488;28;20197;-96
2023/05/02 09:13:40;;;;;;;15.97;5.10;;;18.20;55.60;;;;;;5115770;28;20771;-96
2023/05/02 09:16:13;;;;;;;25.97;5.57;;;18.20;55.60;;;;;;5114029;28;20263;-95
2023/05/02 09:18:49;;;;;;;16.00;5.07;;;18.30;55.70;;;;;;5102470;28;20202;-91
2023/05/02 09:21:17;;;;;;;39.27;6.73;;;18.30;55.70;;;;;;5121066;27;20493;-96
2023/05/02 09:23:47;;;;;;;19.53;5.13;;;18.40;55.90;;;;;;5115893;28;20204;-94
2023/05/02 09:26:16;;;;;;;29.23;5.97;;;18.40;55.80;;;;;;5114670;28;20617;-96
2023/05/02 09:28:44;;;;;;;19.67;5.23;;;18.40;55.90;;;;;;5116295;28;20658;-96
2023/05/02 09:31:13;;;;;;;28.17;5.73;;;18.40;55.90;;;;;;5114996;28;20202;-95
2023/05/02 09:33:40;;;;;;;22.37;5.33;;;18.50;55.90;;;;;;5116367;27;20229;-96
2023/05/02 09:36:09;;;;;;;18.10;5.10;;;18.60;56.00;;;;;;5136551;27;20215;-95
2023/05/02 09:38:36;;;;;;;28.67;6.30;;;18.60;56.00;;;;;;5112227;27;20567;-94
2023/05/02 09:41:05;;;;;;;35.63;6.53;;;18.60;56.00;;;;;;5121286;27;20583;-93
2023/05/02 09:43:32;;;;;;;34.57;7.00;;;18.70;56.10;;;;;;5118818;27;20217;-94
2023/05/02 09:46:01;;;;;;;21.33;5.23;;;18.70;56.10;;;;;;5113463;28;20390;-94
2023/05/02 09:48:57;;;;;;;39.90;6.37;;;18.70;56.10;;;;;;5119554;27;20290;-96
2023/05/02 09:51:28;;;;;;;47.77;7.10;;;18.80;56.20;;;;;;5122275;28;20202;-96
2023/05/02 09:53:55;;;;;;;29.67;5.67;;;18.80;56.10;;;;;;5110034;27;20230;-95
2023/05/02 09:56:25;;;;;;;42.00;6.33;;;18.90;56.20;;;;;;5112264;28;20609;-94
2023/05/02 09:58:52;;;;;;;32.03;6.37;;;18.90;56.20;;;;;;5109187;28;20271;-96
2023/05/02 10:01:20;;;;;;;28.13;5.90;;;19.00;56.80;;;;;;5111499;28;20232;-96
2023/05/02 10:03:49;;;;;;;26.63;5.43;;;19.00;56.30;;;;;;5116428;28;20210;-95
2023/05/02 10:06:17;;;;;;;27.97;5.80;;;19.10;56.30;;;;;;5116048;27;20228;-95
2023/05/02 10:08:46;;;;;;;36.87;7.13;;;19.10;56.30;;;;;;5106414;28;20630;-96
2023/05/02 10:11:13;;;;;;;23.93;5.43;;;19.20;56.40;;;;;;5110347;27;20202;-95
2023/05/02 10:13:43;;;;;;;41.07;6.77;;;19.20;56.40;;;;;;5110329;28;20222;-94
2023/05/02 10:16:12;;;;;;;40.20;7.37;;;19.20;56.40;;;;;;5110765;28;20291;-90
2023/05/02 10:18:47;;;;;;;34.10;6.43;;;19.30;56.40;;;;;;5093278;27;20624;-90
2023/05/02 10:21:17;;;;;;;43.63;7.20;;;19.30;56.40;;;;;;5090546;28;20197;-91
2023/05/02 10:23:44;;;;;;;33.50;6.27;;;19.40;56.60;;;;;;5096672;28;20194;-91
2023/05/02 10:26:17;;;;;;;28.33;6.07;;;19.40;56.50;;;;;;5109531;28;20213;-92
2023/05/02 10:28:46;;;;;;;33.70;6.47;;;19.40;56.60;;;;;;5111120;28;20194;-92
2023/05/02 10:31:16;;;;;;;24.00;5.87;;;19.50;56.60;;;;;;5109289;27;20296;-93
2023/05/02 10:33:43;;;;;;;25.83;5.30;;;19.60;56.70;;;;;;5111600;28;20214;-92
2023/05/02 10:36:12;;;;;;;24.13;5.53;;;19.60;56.70;;;;;;5102940;28;20290;-92
2023/05/02 10:38:40;;;;;;;34.10;6.00;;;19.70;56.70;;;;;;5098334;28;20198;-92
2023/05/02 10:41:10;;;;;;;34.40;6.57;;;19.70;56.70;;;;;;5109154;28;20300;-91
2023/05/02 10:43:38;;;;;;;27.80;5.93;;;19.80;56.90;;;;;;5111773;27;20245;-92
2023/05/02 10:46:32;;;;;;;33.57;6.10;;;19.80;56.80;;;;;;5113195;27;20241;-93
2023/05/02 10:49:03;;;;;;;26.73;6.17;;;19.90;56.90;;;;;;5109575;27;20581;-93
2023/05/02 10:51:31;;;;;;;50.43;7.63;;;19.90;56.90;;;;;;5106291;27;20253;-93
2023/05/02 10:54:19;;;;;;;42.10;7.00;;;20.00;56.90;;;;;;5105403;27;20264;-93
2023/05/02 10:57:07;;;;;;;44.77;7.37;;;20.00;57.00;;;;;;5110386;28;20600;-92
2023/05/02 10:59:36;;;;;;;30.93;6.57;;;20.10;57.00;;;;;;5109421;28;20198;-93
2023/05/02 11:02:05;;;;;;;29.03;5.93;;;20.10;56.80;;;;;;5110818;28;20209;-92
2023/05/02 11:05:02;;;;;;;26.97;5.97;;;20.20;56.90;;;;;;5111319;28;20278;-92
2023/05/02 11:07:30;;;;;;;23.90;5.67;;;20.30;57.00;;;;;;5110411;28;20338;-92
2023/05/02 11:10:30;;;;;;;16.23;4.87;;;20.30;56.90;;;;;;5116322;28;20314;-96
2023/05/02 11:13:00;;;;;;;14.17;4.70;;;20.40;57.00;;;;;;5036834;28;20678;-96
2023/05/02 11:15:55;;;;;;;20.10;4.83;;;20.40;56.90;;;;;;5044452;28;20220;-96
2023/05/02 11:18:25;;;;;;;26.47;6.10;;;20.40;56.90;;;;;;5078219;28;20202;-96
2023/05/02 11:20:52;;;;;;;34.50;6.40;;;20.50;56.90;;;;;;5111111;27;20305;-95
2023/05/02 11:23:27;;;;;;;22.73;5.87;;;20.50;56.90;;;;;;5111316;28;20199;-95
2023/05/02 11:25:56;;;;;;;28.07;6.07;;;20.60;57.00;;;;;;5111390;28;20293;-93
2023/05/02 11:28:50;;;;;;;30.27;6.20;;;20.70;57.00;;;;;;5104088;28;20297;-92
2023/05/02 11:32:03;;;;;;;19.77;5.00;;;20.70;57.10;;;;;;5082426;28;20240;-90
2023/05/02 11:34:42;;;;;;;19.03;5.37;;;20.80;57.10;;;;;;5106400;27;20218;-89
2023/05/02 11:37:14;;;;;;;30.67;6.30;;;20.90;57.10;;;;;;5107788;27;20257;-89
2023/05/02 11:39:41;;;;;;;40.37;6.87;;;20.90;57.00;;;;;;5100542;27;20206;-90
2023/05/02 11:42:08;;;;;;;61.37;8.73;;;20.90;56.90;;;;;;5103731;28;20206;-89
2023/05/02 11:44:56;;;;;;;22.13;5.23;;;21.00;57.00;;;;;;5104337;27;20329;-91
2023/05/02 11:47:23;;;;;;;44.57;6.83;;;21.00;57.00;;;;;;5107581;28;20363;-91
2023/05/02 11:49:51;;;;;;;27.10;5.50;;;21.10;57.10;;;;;;5108392;28;20230;-91
2023/05/02 11:52:20;;;;;;;23.83;5.40;;;21.10;57.00;;;;;;5100901;28;20303;-91
2023/05/02 11:54:48;;;;;;;38.77;6.67;;;21.10;57.00;;;;;;5091083;28;20306;-90
2023/05/02 11:57:15;;;;;;;26.73;5.33;;;21.20;57.00;;;;;;5097699;28;20283;-90
2023/05/02 12:00:00;;;;;;;34.13;6.57;;;21.20;56.90;;;;;;5106952;28;20907;-91
2023/05/02 12:02:37;;;;;;;23.97;5.33;;;21.30;57.00;;;;;;5097252;28;20203;-92
2023/05/02 12:05:06;;;;;;;26.60;6.03;;;21.30;56.90;;;;;;5097186;28;20192;-91
2023/05/02 12:07:37;;;;;;;44.37;7.00;;;21.30;56.80;;;;;;5106478;28;20239;-91
2023/05/02 12:10:05;;;;;;;28.90;5.57;;;21.40;56.90;;;;;;5104774;28;20294;-92
2023/05/02 12:12:32;;;;;;;69.50;9.50;;;21.40;56.90;;;;;;5103459;27;20208;-91
2023/05/02 12:15:04;;;;;;;36.50;6.83;;;21.40;56.90;;;;;;5101298;28;20209;-92
2023/05/02 12:17:31;;;;;;;34.83;6.40;;;21.50;56.90;;;;;;5097500;28;20291;-91
2023/05/02 12:19:58;;;;;;;31.07;6.00;;;21.50;56.90;;;;;;5106038;28;20198;-90
2023/05/02 12:22:28;;;;;;;36.73;6.70;;;21.50;56.90;;;;;;5101341;28;20329;-93
2023/05/02 12:24:55;;;;;;;27.00;5.63;;;21.50;56.80;;;;;;5097867;28;20528;-93
2023/05/02 12:27:22;;;;;;;30.43;5.37;;;21.50;56.80;;;;;;5095846;27;20300;-92
2023/05/02 12:29:50;;;;;;;28.47;5.83;;;21.60;56.90;;;;;;5108433;28;20248;-91
2023/05/02 12:32:27;;;;;;;32.33;6.07;;;21.60;56.90;;;;;;5114397;28;20199;-92
2023/05/02 12:34:54;;;;;;;35.03;6.10;;;21.60;56.90;;;;;;5130275;28;20486;-92
2023/05/02 12:37:23;;;;;;;26.40;6.00;;;21.70;57.00;;;;;;5131203;28;20182;-93
2023/05/02 12:39:52;;;;;;;23.90;5.33;;;21.70;56.90;;;;;;5124548;28;20207;-92
2023/05/02 12:42:21;;;;;;;39.50;6.77;;;21.80;56.80;;;;;;5099633;28;20229;-92
2023/05/02 12:44:52;;;;;;;13.40;4.27;;;21.70;56.80;;;;;;5108313;28;20653;-93
2023/05/02 12:47:20;;;;;;;25.07;5.27;;;21.80;56.90;;;;;;5110128;28;20279;-92
2023/05/02 12:49:51;;;;;;;24.60;5.67;;;21.80;56.90;;;;;;5108784;28;20973;-92